sensor_id;sensor_type;location;lat;lon;timestamp;P1;durP1;ratioP1;P2;durP2;ratioP2
68168;SDS011;54981;50.206;15.978;2022-08-01T00:00:06;16.77;;;15.15;;
68168;SDS011;54981;50.206;15.978;2022-08-01T00:02:33;16.90;;;14.10;;
68168;SDS011;54981;50.206;15.978;2022-08-01T00:05:02;15.95;;;14.45;;
68168;SDS011;54981;50.206;15.978;2022-08-01T00:07:30;15.68;;;14.18;;
68168;SDS011;54981;50.206;15.978;2022-08-01T00:09:56;17.25;;;15.55;;
68168;SDS011;54981;50.206;15.978;2022-08-01T00:12:21;18.00;;;16.25;;
68168;SDS011;54981;50.206;15.978;2022-08-01T00:14:47;15.50;;;14.18;;
68168;SDS011;54981;50.206;15.978;2022-08-01T00:17:12;16.70;;;15.02;;
68168;SDS011;54981;50.206;15.978;2022-08-01T00:19:37;16.35;;;14.82;;
68168;SDS011;54981;50.206;15.978;2022-08-01T00:22:03;15.00;;;13.45;;
68168;SDS011;54981;50.206;15.978;2022-08-01T00:24:28;17.05;;;15.25;;
68168;SDS011;54981;50.206;15.978;2022-08-01T00:26:54;14.98;;;13.57;;
68168;SDS011;54981;50.206;15.978;2022-08-01T00:29:19;16.13;;;14.73;;
68168;SDS011;54981;50.206;15.978;2022-08-01T00:31:44;16.00;;;14.50;;
68168;SDS011;54981;50.206;15.978;2022-08-01T00:34:09;16.77;;;15.20;;
68168;SDS011;54981;50.206;15.978;2022-08-01T00:36:35;16.70;;;15.10;;
68168;SDS011;54981;50.206;15.978;2022-08-01T00:39:00;15.43;;;13.82;;
68168;SDS011;54981;50.206;15.978;2022-08-01T00:41:26;15.70;;;14.20;;
68168;SDS011;54981;50.206;15.978;2022-08-01T00:43:51;17.67;;;15.77;;
68168;SDS011;54981;50.206;15.978;2022-08-01T00:46:16;16.25;;;14.75;;
68168;SDS011;54981;50.206;15.978;2022-08-01T00:48:41;16.67;;;15.07;;
68168;SDS011;54981;50.206;15.978;2022-08-01T00:51:07;17.85;;;16.15;;
68168;SDS011;54981;50.206;15.978;2022-08-01T00:53:33;16.55;;;15.05;;
68168;SDS011;54981;50.206;15.978;2022-08-01T00:55:59;17.65;;;15.85;;
68168;SDS011;54981;50.206;15.978;2022-08-01T00:58:24;16.38;;;14.88;;
68168;SDS011;54981;50.206;15.978;2022-08-01T01:00:50;17.10;;;15.60;;
68168;SDS011;54981;50.206;15.978;2022-08-01T01:03:15;18.75;;;14.90;;
68168;SDS011;54981;50.206;15.978;2022-08-01T01:05:45;16.60;;;14.93;;
68168;SDS011;54981;50.206;15.978;2022-08-01T01:08:22;22.63;;;15.95;;
68168;SDS011;54981;50.206;15.978;2022-08-01T01:10:54;17.52;;;15.93;;
68168;SDS011;54981;50.206;15.978;2022-08-01T01:13:24;16.50;;;14.90;;
68168;SDS011;54981;50.206;15.978;2022-08-01T01:15:59;16.52;;;14.90;;
68168;SDS011;54981;50.206;15.978;2022-08-01T01:18:30;16.98;;;15.48;;
68168;SDS011;54981;50.206;15.978;2022-08-01T01:23:50;15.55;;;13.82;;
68168;SDS011;54981;50.206;15.978;2022-08-01T01:29:11;17.77;;;16.02;;
68168;SDS011;54981;50.206;15.978;2022-08-01T01:32:00;15.93;;;14.43;;
68168;SDS011;54981;50.206;15.978;2022-08-01T01:34:31;16.30;;;14.65;;
68168;SDS011;54981;50.206;15.978;2022-08-01T01:37:00;16.08;;;14.57;;
68168;SDS011;54981;50.206;15.978;2022-08-01T01:39:27;17.02;;;14.82;;
68168;SDS011;54981;50.206;15.978;2022-08-01T01:41:54;15.93;;;14.35;;
68168;SDS011;54981;50.206;15.978;2022-08-01T01:44:20;16.50;;;13.60;;
68168;SDS011;54981;50.206;15.978;2022-08-01T01:46:47;15.65;;;14.15;;
68168;SDS011;54981;50.206;15.978;2022-08-01T01:49:15;17.08;;;15.38;;
68168;SDS011;54981;50.206;15.978;2022-08-01T01:51:42;16.48;;;14.75;;
68168;SDS011;54981;50.206;15.978;2022-08-01T01:54:11;16.83;;;15.32;;
68168;SDS011;54981;50.206;15.978;2022-08-01T01:56:36;16.42;;;14.73;;
68168;SDS011;54981;50.206;15.978;2022-08-01T01:59:13;16.50;;;14.85;;
68168;SDS011;54981;50.206;15.978;2022-08-01T02:01:51;16.13;;;14.57;;
68168;SDS011;54981;50.206;15.978;2022-08-01T02:04:19;16.30;;;14.77;;
68168;SDS011;54981;50.206;15.978;2022-08-01T02:06:47;15.77;;;14.27;;
68168;SDS011;54981;50.206;15.978;2022-08-01T02:09:16;16.60;;;14.85;;
68168;SDS011;54981;50.206;15.978;2022-08-01T02:11:44;15.02;;;13.50;;
68168;SDS011;54981;50.206;15.978;2022-08-01T02:14:11;14.82;;;13.43;;
68168;SDS011;54981;50.206;15.978;2022-08-01T02:16:39;16.08;;;14.48;;
68168;SDS011;54981;50.206;15.978;2022-08-01T02:19:06;16.85;;;14.48;;
68168;SDS011;54981;50.206;15.978;2022-08-01T02:21:34;15.15;;;13.75;;
68168;SDS011;54981;50.206;15.978;2022-08-01T02:24:13;16.02;;;14.18;;
68168;SDS011;54981;50.206;15.978;2022-08-01T02:26:44;16.42;;;14.95;;
68168;SDS011;54981;50.206;15.978;2022-08-01T02:29:14;16.08;;;14.48;;
68168;SDS011;54981;50.206;15.978;2022-08-01T02:31:46;15.20;;;13.75;;
68168;SDS011;54981;50.206;15.978;2022-08-01T02:34:13;16.58;;;14.52;;
68168;SDS011;54981;50.206;15.978;2022-08-01T02:36:42;17.40;;;14.35;;
68168;SDS011;54981;50.206;15.978;2022-08-01T02:39:13;16.95;;;14.90;;
68168;SDS011;54981;50.206;15.978;2022-08-01T02:41:41;17.13;;;15.43;;
68168;SDS011;54981;50.206;15.978;2022-08-01T02:44:09;15.38;;;13.82;;
68168;SDS011;54981;50.206;15.978;2022-08-01T02:46:41;17.10;;;15.43;;
68168;SDS011;54981;50.206;15.978;2022-08-01T02:49:13;17.98;;;16.05;;
68168;SDS011;54981;50.206;15.978;2022-08-01T02:51:41;17.55;;;15.98;;
68168;SDS011;54981;50.206;15.978;2022-08-01T02:54:10;16.75;;;15.20;;
68168;SDS011;54981;50.206;15.978;2022-08-01T02:56:36;17.48;;;15.70;;
68168;SDS011;54981;50.206;15.978;2022-08-01T02:59:06;18.52;;;16.90;;
68168;SDS011;54981;50.206;15.978;2022-08-01T03:01:36;18.42;;;16.55;;
68168;SDS011;54981;50.206;15.978;2022-08-01T03:04:04;18.77;;;17.05;;
68168;SDS011;54981;50.206;15.978;2022-08-01T03:06:30;18.13;;;16.52;;
68168;SDS011;54981;50.206;15.978;2022-08-01T03:08:57;18.60;;;16.80;;
68168;SDS011;54981;50.206;15.978;2022-08-01T03:11:24;19.30;;;17.30;;
68168;SDS011;54981;50.206;15.978;2022-08-01T03:13:52;18.60;;;16.67;;
68168;SDS011;54981;50.206;15.978;2022-08-01T03:16:18;18.83;;;15.82;;
68168;SDS011;54981;50.206;15.978;2022-08-01T03:18:47;17.42;;;15.77;;
68168;SDS011;54981;50.206;15.978;2022-08-01T03:21:14;19.20;;;17.30;;
68168;SDS011;54981;50.206;15.978;2022-08-01T03:23:41;18.35;;;16.40;;
68168;SDS011;54981;50.206;15.978;2022-08-01T03:26:09;16.45;;;14.75;;
68168;SDS011;54981;50.206;15.978;2022-08-01T03:28:36;17.63;;;15.93;;
68168;SDS011;54981;50.206;15.978;2022-08-01T03:31:03;17.55;;;15.95;;
68168;SDS011;54981;50.206;15.978;2022-08-01T03:33:29;16.80;;;15.13;;
68168;SDS011;54981;50.206;15.978;2022-08-01T03:35:55;17.40;;;15.70;;
68168;SDS011;54981;50.206;15.978;2022-08-01T03:38:23;16.35;;;14.73;;
68168;SDS011;54981;50.206;15.978;2022-08-01T03:43:28;17.50;;;15.80;;
68168;SDS011;54981;50.206;15.978;2022-08-01T03:45:58;17.17;;;15.45;;
68168;SDS011;54981;50.206;15.978;2022-08-01T03:48:29;17.20;;;15.60;;
68168;SDS011;54981;50.206;15.978;2022-08-01T03:51:01;17.15;;;15.63;;
68168;SDS011;54981;50.206;15.978;2022-08-01T03:53:29;19.17;;;14.77;;
68168;SDS011;54981;50.206;15.978;2022-08-01T03:55:58;17.02;;;15.43;;
68168;SDS011;54981;50.206;15.978;2022-08-01T03:58:26;17.73;;;15.43;;
68168;SDS011;54981;50.206;15.978;2022-08-01T04:00:52;15.93;;;14.35;;
68168;SDS011;54981;50.206;15.978;2022-08-01T04:03:19;17.17;;;15.60;;
68168;SDS011;54981;50.206;15.978;2022-08-01T04:05:45;17.63;;;16.02;;
68168;SDS011;54981;50.206;15.978;2022-08-01T04:08:10;17.58;;;15.88;;
68168;SDS011;54981;50.206;15.978;2022-08-01T04:10:36;17.75;;;16.15;;
68168;SDS011;54981;50.206;15.978;2022-08-01T04:13:02;18.52;;;16.83;;
68168;SDS011;54981;50.206;15.978;2022-08-01T04:15:27;19.00;;;16.45;;
68168;SDS011;54981;50.206;15.978;2022-08-01T04:17:53;18.40;;;16.67;;
68168;SDS011;54981;50.206;15.978;2022-08-01T04:20:19;20.08;;;18.17;;
68168;SDS011;54981;50.206;15.978;2022-08-01T04:22:44;19.73;;;17.92;;
68168;SDS011;54981;50.206;15.978;2022-08-01T04:25:12;18.90;;;17.10;;
68168;SDS011;54981;50.206;15.978;2022-08-01T04:27:42;18.27;;;16.67;;
68168;SDS011;54981;50.206;15.978;2022-08-01T04:30:11;17.30;;;15.60;;
68168;SDS011;54981;50.206;15.978;2022-08-01T04:32:38;16.73;;;15.13;;
68168;SDS011;54981;50.206;15.978;2022-08-01T04:35:06;15.98;;;14.38;;
68168;SDS011;54981;50.206;15.978;2022-08-01T04:37:34;17.63;;;16.13;;
68168;SDS011;54981;50.206;15.978;2022-08-01T04:40:02;16.67;;;14.98;;
68168;SDS011;54981;50.206;15.978;2022-08-01T04:42:30;18.55;;;15.23;;
68168;SDS011;54981;50.206;15.978;2022-08-01T04:44:56;16.80;;;15.02;;
68168;SDS011;54981;50.206;15.978;2022-08-01T04:47:22;16.83;;;15.18;;
68168;SDS011;54981;50.206;15.978;2022-08-01T04:49:48;16.35;;;14.65;;
68168;SDS011;54981;50.206;15.978;2022-08-01T04:52:14;16.33;;;14.70;;
68168;SDS011;54981;50.206;15.978;2022-08-01T04:54:39;16.08;;;14.52;;
68168;SDS011;54981;50.206;15.978;2022-08-01T04:57:05;17.17;;;15.45;;
68168;SDS011;54981;50.206;15.978;2022-08-01T04:59:34;16.30;;;14.73;;
68168;SDS011;54981;50.206;15.978;2022-08-01T05:02:08;16.48;;;14.85;;
68168;SDS011;54981;50.206;15.978;2022-08-01T05:04:39;18.33;;;14.73;;
68168;SDS011;54981;50.206;15.978;2022-08-01T05:07:06;16.00;;;14.52;;
68168;SDS011;54981;50.206;15.978;2022-08-01T05:09:32;15.55;;;14.10;;
68168;SDS011;54981;50.206;15.978;2022-08-01T05:11:58;16.40;;;14.88;;
68168;SDS011;54981;50.206;15.978;2022-08-01T05:14:25;19.83;;;15.52;;
68168;SDS011;54981;50.206;15.978;2022-08-01T05:16:51;17.05;;;15.55;;
68168;SDS011;54981;50.206;15.978;2022-08-01T05:19:17;16.73;;;14.32;;
68168;SDS011;54981;50.206;15.978;2022-08-01T05:21:42;16.55;;;15.00;;
68168;SDS011;54981;50.206;15.978;2022-08-01T05:24:07;15.18;;;13.68;;
68168;SDS011;54981;50.206;15.978;2022-08-01T05:26:33;15.98;;;14.48;;
68168;SDS011;54981;50.206;15.978;2022-08-01T05:28:59;16.60;;;15.10;;
68168;SDS011;54981;50.206;15.978;2022-08-01T05:31:24;16.30;;;14.80;;
68168;SDS011;54981;50.206;15.978;2022-08-01T05:33:50;16.35;;;14.75;;
68168;SDS011;54981;50.206;15.978;2022-08-01T05:36:15;16.95;;;15.15;;
68168;SDS011;54981;50.206;15.978;2022-08-01T05:38:40;17.13;;;15.52;;
68168;SDS011;54981;50.206;15.978;2022-08-01T05:41:06;16.63;;;15.02;;
68168;SDS011;54981;50.206;15.978;2022-08-01T05:43:31;16.77;;;15.18;;
68168;SDS011;54981;50.206;15.978;2022-08-01T05:45:56;17.33;;;15.82;;
68168;SDS011;54981;50.206;15.978;2022-08-01T05:48:23;16.73;;;15.15;;
68168;SDS011;54981;50.206;15.978;2022-08-01T05:50:48;15.18;;;13.80;;
68168;SDS011;54981;50.206;15.978;2022-08-01T05:53:14;14.73;;;13.38;;
68168;SDS011;54981;50.206;15.978;2022-08-01T05:55:40;15.88;;;13.82;;
68168;SDS011;54981;50.206;15.978;2022-08-01T05:58:05;15.75;;;14.35;;
68168;SDS011;54981;50.206;15.978;2022-08-01T06:00:30;15.23;;;13.55;;
68168;SDS011;54981;50.206;15.978;2022-08-01T06:02:56;14.93;;;13.43;;
68168;SDS011;54981;50.206;15.978;2022-08-01T06:05:21;14.77;;;13.25;;
68168;SDS011;54981;50.206;15.978;2022-08-01T06:07:47;14.00;;;12.40;;
68168;SDS011;54981;50.206;15.978;2022-08-01T06:10:13;13.52;;;11.98;;
68168;SDS011;54981;50.206;15.978;2022-08-01T06:12:38;13.40;;;12.10;;
68168;SDS011;54981;50.206;15.978;2022-08-01T06:15:04;13.40;;;11.93;;
68168;SDS011;54981;50.206;15.978;2022-08-01T06:17:30;12.73;;;11.38;;
68168;SDS011;54981;50.206;15.978;2022-08-01T06:19:55;13.88;;;12.25;;
68168;SDS011;54981;50.206;15.978;2022-08-01T06:22:21;13.40;;;12.10;;
68168;SDS011;54981;50.206;15.978;2022-08-01T06:24:47;13.98;;;12.65;;
68168;SDS011;54981;50.206;15.978;2022-08-01T06:27:12;13.63;;;12.32;;
68168;SDS011;54981;50.206;15.978;2022-08-01T06:29:38;14.23;;;12.68;;
68168;SDS011;54981;50.206;15.978;2022-08-01T06:32:03;13.90;;;12.40;;
68168;SDS011;54981;50.206;15.978;2022-08-01T06:34:29;14.57;;;13.07;;
68168;SDS011;54981;50.206;15.978;2022-08-01T06:36:54;13.95;;;12.75;;
68168;SDS011;54981;50.206;15.978;2022-08-01T06:39:19;13.32;;;12.07;;
68168;SDS011;54981;50.206;15.978;2022-08-01T06:41:45;14.95;;;13.15;;
68168;SDS011;54981;50.206;15.978;2022-08-01T06:44:12;14.25;;;12.73;;
68168;SDS011;54981;50.206;15.978;2022-08-01T06:46:38;16.20;;;13.70;;
68168;SDS011;54981;50.206;15.978;2022-08-01T06:49:03;20.27;;;13.77;;
68168;SDS011;54981;50.206;15.978;2022-08-01T06:51:28;17.27;;;13.85;;
68168;SDS011;54981;50.206;15.978;2022-08-01T06:53:54;15.02;;;13.65;;
68168;SDS011;54981;50.206;15.978;2022-08-01T06:56:19;15.85;;;14.30;;
68168;SDS011;54981;50.206;15.978;2022-08-01T06:58:45;19.30;;;15.57;;
68168;SDS011;54981;50.206;15.978;2022-08-01T07:01:10;17.02;;;15.23;;
68168;SDS011;54981;50.206;15.978;2022-08-01T07:03:36;16.65;;;14.88;;
68168;SDS011;54981;50.206;15.978;2022-08-01T07:06:01;16.17;;;14.68;;
68168;SDS011;54981;50.206;15.978;2022-08-01T07:08:28;16.67;;;14.98;;
68168;SDS011;54981;50.206;15.978;2022-08-01T07:10:53;15.38;;;13.88;;
68168;SDS011;54981;50.206;15.978;2022-08-01T07:13:18;15.32;;;13.80;;
68168;SDS011;54981;50.206;15.978;2022-08-01T07:15:48;16.42;;;14.75;;
68168;SDS011;54981;50.206;15.978;2022-08-01T07:18:13;17.65;;;13.60;;
68168;SDS011;54981;50.206;15.978;2022-08-01T07:20:39;16.33;;;14.77;;
68168;SDS011;54981;50.206;15.978;2022-08-01T07:23:04;14.63;;;13.27;;
68168;SDS011;54981;50.206;15.978;2022-08-01T07:25:30;15.77;;;14.25;;
68168;SDS011;54981;50.206;15.978;2022-08-01T07:27:55;14.68;;;13.20;;
68168;SDS011;54981;50.206;15.978;2022-08-01T07:30:20;16.10;;;14.52;;
68168;SDS011;54981;50.206;15.978;2022-08-01T07:32:46;16.33;;;14.60;;
68168;SDS011;54981;50.206;15.978;2022-08-01T07:35:12;16.42;;;13.38;;
68168;SDS011;54981;50.206;15.978;2022-08-01T07:37:37;16.00;;;14.23;;
68168;SDS011;54981;50.206;15.978;2022-08-01T07:40:03;17.77;;;14.55;;
68168;SDS011;54981;50.206;15.978;2022-08-01T07:42:30;20.75;;;15.23;;
68168;SDS011;54981;50.206;15.978;2022-08-01T07:44:55;14.27;;;12.88;;
68168;SDS011;54981;50.206;15.978;2022-08-01T07:47:24;14.65;;;13.13;;
68168;SDS011;54981;50.206;15.978;2022-08-01T07:49:50;15.38;;;13.77;;
68168;SDS011;54981;50.206;15.978;2022-08-01T07:52:16;18.20;;;14.25;;
68168;SDS011;54981;50.206;15.978;2022-08-01T07:54:41;15.35;;;13.85;;
68168;SDS011;54981;50.206;15.978;2022-08-01T07:57:06;15.73;;;14.13;;
68168;SDS011;54981;50.206;15.978;2022-08-01T07:59:32;15.60;;;14.00;;
68168;SDS011;54981;50.206;15.978;2022-08-01T08:01:57;16.80;;;15.13;;
68168;SDS011;54981;50.206;15.978;2022-08-01T08:04:23;15.23;;;13.63;;
68168;SDS011;54981;50.206;15.978;2022-08-01T08:06:48;15.68;;;14.07;;
68168;SDS011;54981;50.206;15.978;2022-08-01T08:09:14;14.93;;;13.43;;
68168;SDS011;54981;50.206;15.978;2022-08-01T08:11:41;14.05;;;12.77;;
68168;SDS011;54981;50.206;15.978;2022-08-01T08:14:08;13.77;;;12.43;;
68168;SDS011;54981;50.206;15.978;2022-08-01T08:16:33;13.73;;;12.18;;
68168;SDS011;54981;50.206;15.978;2022-08-01T08:18:59;13.48;;;12.07;;
68168;SDS011;54981;50.206;15.978;2022-08-01T08:21:24;14.95;;;11.88;;
68168;SDS011;54981;50.206;15.978;2022-08-01T08:23:49;14.52;;;13.00;;
68168;SDS011;54981;50.206;15.978;2022-08-01T08:26:33;11.43;;;10.35;;
68168;SDS011;54981;50.206;15.978;2022-08-01T08:28:58;12.38;;;11.20;;
68168;SDS011;54981;50.206;15.978;2022-08-01T08:31:24;11.55;;;9.55;;
68168;SDS011;54981;50.206;15.978;2022-08-01T08:33:49;11.43;;;10.32;;
68168;SDS011;54981;50.206;15.978;2022-08-01T08:36:14;12.50;;;10.65;;
68168;SDS011;54981;50.206;15.978;2022-08-01T08:38:40;13.43;;;10.30;;
68168;SDS011;54981;50.206;15.978;2022-08-01T08:41:05;14.35;;;9.95;;
68168;SDS011;54981;50.206;15.978;2022-08-01T08:43:30;12.88;;;10.45;;
68168;SDS011;54981;50.206;15.978;2022-08-01T08:45:56;11.25;;;9.65;;
68168;SDS011;54981;50.206;15.978;2022-08-01T08:48:22;10.98;;;9.75;;
68168;SDS011;54981;50.206;15.978;2022-08-01T08:50:48;10.80;;;9.68;;
68168;SDS011;54981;50.206;15.978;2022-08-01T08:53:15;11.77;;;10.45;;
68168;SDS011;54981;50.206;15.978;2022-08-01T08:55:41;11.00;;;9.95;;
68168;SDS011;54981;50.206;15.978;2022-08-01T08:58:12;10.57;;;9.50;;
68168;SDS011;54981;50.206;15.978;2022-08-01T09:00:39;10.82;;;9.00;;
68168;SDS011;54981;50.206;15.978;2022-08-01T09:03:05;10.20;;;7.70;;
68168;SDS011;54981;50.206;15.978;2022-08-01T09:05:31;10.65;;;7.82;;
68168;SDS011;54981;50.206;15.978;2022-08-01T09:07:57;11.85;;;9.07;;
68168;SDS011;54981;50.206;15.978;2022-08-01T09:10:22;9.63;;;7.93;;
68168;SDS011;54981;50.206;15.978;2022-08-01T09:13:01;9.77;;;8.27;;
68168;SDS011;54981;50.206;15.978;2022-08-01T09:15:41;8.85;;;7.28;;
68168;SDS011;54981;50.206;15.978;2022-08-01T09:18:22;9.90;;;7.55;;
68168;SDS011;54981;50.206;15.978;2022-08-01T09:21:16;8.88;;;7.50;;
68168;SDS011;54981;50.206;15.978;2022-08-01T09:23:46;10.02;;;7.18;;
68168;SDS011;54981;50.206;15.978;2022-08-01T09:26:18;10.50;;;6.10;;
68168;SDS011;54981;50.206;15.978;2022-08-01T09:28:46;7.20;;;6.38;;
68168;SDS011;54981;50.206;15.978;2022-08-01T09:31:13;7.45;;;6.68;;
68168;SDS011;54981;50.206;15.978;2022-08-01T09:33:50;9.48;;;6.07;;
68168;SDS011;54981;50.206;15.978;2022-08-01T09:36:42;7.70;;;5.90;;
68168;SDS011;54981;50.206;15.978;2022-08-01T09:39:39;7.35;;;5.10;;
68168;SDS011;54981;50.206;15.978;2022-08-01T09:42:26;7.50;;;4.68;;
68168;SDS011;54981;50.206;15.978;2022-08-01T09:44:52;6.93;;;5.28;;
68168;SDS011;54981;50.206;15.978;2022-08-01T09:47:18;9.02;;;5.93;;
68168;SDS011;54981;50.206;15.978;2022-08-01T09:49:55;8.25;;;5.40;;
68168;SDS011;54981;50.206;15.978;2022-08-01T09:52:25;8.43;;;5.75;;
68168;SDS011;54981;50.206;15.978;2022-08-01T09:54:58;8.80;;;5.85;;
68168;SDS011;54981;50.206;15.978;2022-08-01T09:57:25;8.38;;;5.50;;
68168;SDS011;54981;50.206;15.978;2022-08-01T09:59:53;8.45;;;5.60;;
68168;SDS011;54981;50.206;15.978;2022-08-01T10:04:57;6.97;;;5.38;;
68168;SDS011;54981;50.206;15.978;2022-08-01T10:07:23;7.82;;;5.47;;
68168;SDS011;54981;50.206;15.978;2022-08-01T10:09:49;10.13;;;5.65;;
68168;SDS011;54981;50.206;15.978;2022-08-01T10:12:16;7.82;;;6.10;;
68168;SDS011;54981;50.206;15.978;2022-08-01T10:14:44;10.30;;;5.50;;
68168;SDS011;54981;50.206;15.978;2022-08-01T10:17:12;6.88;;;4.90;;
68168;SDS011;54981;50.206;15.978;2022-08-01T10:19:39;6.93;;;5.10;;
68168;SDS011;54981;50.206;15.978;2022-08-01T10:22:07;9.00;;;5.40;;
68168;SDS011;54981;50.206;15.978;2022-08-01T10:24:35;5.30;;;4.40;;
68168;SDS011;54981;50.206;15.978;2022-08-01T10:27:03;7.43;;;4.05;;
68168;SDS011;54981;50.206;15.978;2022-08-01T10:29:55;5.55;;;4.25;;
68168;SDS011;54981;50.206;15.978;2022-08-01T10:32:31;5.82;;;4.60;;
68168;SDS011;54981;50.206;15.978;2022-08-01T10:34:57;6.93;;;4.47;;
68168;SDS011;54981;50.206;15.978;2022-08-01T10:37:23;6.85;;;4.63;;
68168;SDS011;54981;50.206;15.978;2022-08-01T10:39:50;5.80;;;4.38;;
68168;SDS011;54981;50.206;15.978;2022-08-01T10:42:17;7.05;;;4.75;;
68168;SDS011;54981;50.206;15.978;2022-08-01T10:44:42;6.43;;;4.72;;
68168;SDS011;54981;50.206;15.978;2022-08-01T10:47:11;5.00;;;4.50;;
68168;SDS011;54981;50.206;15.978;2022-08-01T10:52:27;8.95;;;4.18;;
68168;SDS011;54981;50.206;15.978;2022-08-01T10:55:03;8.27;;;4.97;;
68168;SDS011;54981;50.206;15.978;2022-08-01T10:57:42;9.82;;;4.85;;
68168;SDS011;54981;50.206;15.978;2022-08-01T11:00:18;8.18;;;4.82;;
68168;SDS011;54981;50.206;15.978;2022-08-01T11:02:58;6.10;;;4.53;;
68168;SDS011;54981;50.206;15.978;2022-08-01T11:05:32;7.22;;;5.43;;
68168;SDS011;54981;50.206;15.978;2022-08-01T11:08:43;7.63;;;4.25;;
68168;SDS011;54981;50.206;15.978;2022-08-01T11:10:50;8.80;;;4.07;;
68168;SDS011;54981;50.206;15.978;2022-08-01T11:16:26;6.70;;;4.60;;
68168;SDS011;54981;50.206;15.978;2022-08-01T11:18:56;5.10;;;4.60;;
68168;SDS011;54981;50.206;15.978;2022-08-01T11:21:22;6.50;;;4.60;;
68168;SDS011;54981;50.206;15.978;2022-08-01T11:23:51;6.43;;;5.13;;
68168;SDS011;54981;50.206;15.978;2022-08-01T11:26:18;6.75;;;4.40;;
68168;SDS011;54981;50.206;15.978;2022-08-01T11:28:45;7.10;;;4.72;;
68168;SDS011;54981;50.206;15.978;2022-08-01T11:31:31;5.85;;;4.32;;
68168;SDS011;54981;50.206;15.978;2022-08-01T11:33:57;6.72;;;4.40;;
68168;SDS011;54981;50.206;15.978;2022-08-01T11:36:23;5.40;;;4.30;;
68168;SDS011;54981;50.206;15.978;2022-08-01T11:39:10;6.95;;;4.13;;
68168;SDS011;54981;50.206;15.978;2022-08-01T11:41:35;7.75;;;4.30;;
68168;SDS011;54981;50.206;15.978;2022-08-01T11:52:01;5.55;;;4.38;;
68168;SDS011;54981;50.206;15.978;2022-08-01T11:54:27;5.32;;;4.15;;
68168;SDS011;54981;50.206;15.978;2022-08-01T11:56:57;5.22;;;4.70;;
68168;SDS011;54981;50.206;15.978;2022-08-01T11:59:24;5.35;;;4.25;;
68168;SDS011;54981;50.206;15.978;2022-08-01T12:01:49;6.70;;;4.78;;
68168;SDS011;54981;50.206;15.978;2022-08-01T12:04:15;5.85;;;4.40;;
68168;SDS011;54981;50.206;15.978;2022-08-01T12:06:41;7.78;;;5.43;;
68168;SDS011;54981;50.206;15.978;2022-08-01T12:09:20;7.32;;;5.55;;
68168;SDS011;54981;50.206;15.978;2022-08-01T12:11:46;8.48;;;5.40;;
68168;SDS011;54981;50.206;15.978;2022-08-01T12:14:15;6.22;;;5.63;;
68168;SDS011;54981;50.206;15.978;2022-08-01T12:16:52;8.82;;;6.22;;
68168;SDS011;54981;50.206;15.978;2022-08-01T12:19:22;7.25;;;5.20;;
68168;SDS011;54981;50.206;15.978;2022-08-01T12:22:05;6.43;;;5.82;;
68168;SDS011;54981;50.206;15.978;2022-08-01T12:24:34;7.25;;;5.30;;
68168;SDS011;54981;50.206;15.978;2022-08-01T12:27:00;7.13;;;6.22;;
68168;SDS011;54981;50.206;15.978;2022-08-01T12:29:35;6.40;;;5.78;;
68168;SDS011;54981;50.206;15.978;2022-08-01T12:32:03;8.18;;;5.80;;
68168;SDS011;54981;50.206;15.978;2022-08-01T12:34:29;7.10;;;6.35;;
68168;SDS011;54981;50.206;15.978;2022-08-01T12:36:55;6.75;;;5.95;;
68168;SDS011;54981;50.206;15.978;2022-08-01T12:39:28;7.03;;;6.32;;
68168;SDS011;54981;50.206;15.978;2022-08-01T12:41:54;7.28;;;6.18;;
68168;SDS011;54981;50.206;15.978;2022-08-01T12:44:19;6.47;;;5.72;;
68168;SDS011;54981;50.206;15.978;2022-08-01T12:46:45;6.05;;;5.45;;
68168;SDS011;54981;50.206;15.978;2022-08-01T12:49:10;6.15;;;5.55;;
68168;SDS011;54981;50.206;15.978;2022-08-01T12:51:36;7.68;;;6.40;;
68168;SDS011;54981;50.206;15.978;2022-08-01T12:54:01;7.18;;;5.80;;
68168;SDS011;54981;50.206;15.978;2022-08-01T12:56:32;9.02;;;6.43;;
68168;SDS011;54981;50.206;15.978;2022-08-01T12:58:58;8.27;;;7.45;;
68168;SDS011;54981;50.206;15.978;2022-08-01T13:01:27;9.82;;;6.85;;
68168;SDS011;54981;50.206;15.978;2022-08-01T13:04:00;7.45;;;6.75;;
68168;SDS011;54981;50.206;15.978;2022-08-01T13:06:29;7.80;;;5.57;;
68168;SDS011;54981;50.206;15.978;2022-08-01T13:08:55;6.72;;;4.40;;
68168;SDS011;54981;50.206;15.978;2022-08-01T13:11:30;5.28;;;4.78;;
68168;SDS011;54981;50.206;15.978;2022-08-01T13:13:56;6.20;;;5.20;;
68168;SDS011;54981;50.206;15.978;2022-08-01T13:16:26;6.53;;;5.57;;
68168;SDS011;54981;50.206;15.978;2022-08-01T13:18:52;7.18;;;6.47;;
68168;SDS011;54981;50.206;15.978;2022-08-01T13:21:23;7.32;;;6.57;;
68168;SDS011;54981;50.206;15.978;2022-08-01T13:26:37;8.98;;;6.38;;
68168;SDS011;54981;50.206;15.978;2022-08-01T13:29:14;8.20;;;7.03;;
68168;SDS011;54981;50.206;15.978;2022-08-01T13:31:45;7.50;;;6.70;;
68168;SDS011;54981;50.206;15.978;2022-08-01T13:34:10;6.75;;;6.05;;
68168;SDS011;54981;50.206;15.978;2022-08-01T13:36:36;7.10;;;6.40;;
68168;SDS011;54981;50.206;15.978;2022-08-01T13:39:02;8.48;;;6.85;;
68168;SDS011;54981;50.206;15.978;2022-08-01T13:41:47;8.50;;;7.22;;
68168;SDS011;54981;50.206;15.978;2022-08-01T13:44:12;8.07;;;6.97;;
68168;SDS011;54981;50.206;15.978;2022-08-01T13:46:38;6.90;;;6.20;;
68168;SDS011;54981;50.206;15.978;2022-08-01T13:49:05;7.82;;;7.00;;
68168;SDS011;54981;50.206;15.978;2022-08-01T13:51:32;6.32;;;5.72;;
68168;SDS011;54981;50.206;15.978;2022-08-01T13:53:58;9.18;;;6.22;;
68168;SDS011;54981;50.206;15.978;2022-08-01T13:56:25;6.20;;;4.65;;
68168;SDS011;54981;50.206;15.978;2022-08-01T13:58:52;6.07;;;4.63;;
68168;SDS011;54981;50.206;15.978;2022-08-01T14:01:18;5.63;;;4.97;;
68168;SDS011;54981;50.206;15.978;2022-08-01T14:03:43;5.68;;;4.47;;
68168;SDS011;54981;50.206;15.978;2022-08-01T14:06:09;5.15;;;4.45;;
68168;SDS011;54981;50.206;15.978;2022-08-01T14:08:35;7.10;;;4.65;;
68168;SDS011;54981;50.206;15.978;2022-08-01T14:11:00;6.60;;;4.50;;
68168;SDS011;54981;50.206;15.978;2022-08-01T14:13:26;5.00;;;4.13;;
68168;SDS011;54981;50.206;15.978;2022-08-01T14:15:51;6.43;;;4.32;;
68168;SDS011;54981;50.206;15.978;2022-08-01T14:18:17;4.75;;;3.40;;
68168;SDS011;54981;50.206;15.978;2022-08-01T14:20:43;4.30;;;3.72;;
68168;SDS011;54981;50.206;15.978;2022-08-01T14:23:08;3.67;;;3.15;;
68168;SDS011;54981;50.206;15.978;2022-08-01T14:25:35;5.15;;;3.55;;
68168;SDS011;54981;50.206;15.978;2022-08-01T14:28:04;4.63;;;3.80;;
68168;SDS011;54981;50.206;15.978;2022-08-01T14:30:31;3.90;;;3.50;;
68168;SDS011;54981;50.206;15.978;2022-08-01T14:32:57;4.35;;;3.95;;
68168;SDS011;54981;50.206;15.978;2022-08-01T14:35:22;3.90;;;3.30;;
68168;SDS011;54981;50.206;15.978;2022-08-01T14:37:48;4.15;;;3.15;;
68168;SDS011;54981;50.206;15.978;2022-08-01T14:40:14;3.85;;;3.17;;
68168;SDS011;54981;50.206;15.978;2022-08-01T14:42:39;4.28;;;3.78;;
68168;SDS011;54981;50.206;15.978;2022-08-01T14:45:05;4.97;;;4.25;;
68168;SDS011;54981;50.206;15.978;2022-08-01T14:47:40;4.30;;;3.90;;
68168;SDS011;54981;50.206;15.978;2022-08-01T14:50:08;4.32;;;3.90;;